Time;durP1;ratioP1;P1;durP2;ratioP2;P2;SDS_P1;SDS_P2;PMS_P1;PMS_P2;Temp;Humidity;BMP_temperature;BMP_pressure;BME280_temperature;BME280_humidity;BME280_pressure;Samples;Min_cycle;Max_cycle;Signal;HPM_P1;HPM_P2
2021/09/22 00:00:22;;;;;;;4.45;1.92;;;;;;;;;;5069702;28;20032;-60
2021/09/22 00:02:48;;;;;;;2.75;2.05;;;;;;;;;;5069777;28;20143;-59
2021/09/22 00:05:14;;;;;;;2.95;1.92;;;;;;;;;;5069791;28;20029;-59
2021/09/22 00:07:40;;;;;;;1.88;1.38;;;;;;;;;;5068613;28;20033;-59
2021/09/22 00:10:08;;;;;;;2.90;1.98;;;;;;;;;;5068397;28;20104;-59
2021/09/22 00:12:33;;;;;;;2.70;2.13;;;;;;;;;;5068920;28;20032;-59
2021/09/22 00:14:59;;;;;;;2.10;1.50;;;;;;;;;;5068858;28;20025;-59
2021/09/22 00:17:24;;;;;;;2.92;2.13;;;;;;;;;;5069586;28;20039;-59
2021/09/22 00:19:50;;;;;;;2.30;1.63;;;;;;;;;;5069506;28;20441;-59
2021/09/22 00:22:15;;;;;;;3.42;2.13;;;;;;;;;;5058974;28;20039;-59
2021/09/22 00:24:41;;;;;;;2.78;1.88;;;;;;;;;;5067423;28;20042;-59
2021/09/22 00:27:06;;;;;;;2.47;1.60;;;;;;;;;;5069389;28;20067;-59
2021/09/22 00:29:32;;;;;;;2.20;1.75;;;;;;;;;;5069272;28;20046;-59
2021/09/22 00:31:57;;;;;;;3.22;2.03;;;;;;;;;;5068700;28;20051;-60
2021/09/22 00:34:23;;;;;;;2.75;1.98;;;;;;;;;;5069251;28;20140;-59
2021/09/22 00:36:49;;;;;;;2.45;1.52;;;;;;;;;;5068401;28;20029;-59
2021/09/22 00:39:15;;;;;;;2.42;1.90;;;;;;;;;;5068187;28;20609;-60
2021/09/22 00:41:41;;;;;;;2.58;1.85;;;;;;;;;;5068265;28;20075;-60
2021/09/22 00:44:07;;;;;;;2.35;1.67;;;;;;;;;;5069149;28;20064;-56
2021/09/22 00:46:32;;;;;;;2.58;2.15;;;;;;;;;;5069537;28;20029;-54
2021/09/22 00:48:57;;;;;;;2.15;1.50;;;;;;;;;;5068471;28;20083;-55
2021/09/22 00:51:23;;;;;;;2.78;1.65;;;;;;;;;;5069159;28;20036;-54
2021/09/22 00:53:48;;;;;;;2.78;2.20;;;;;;;;;;5067339;28;20370;-56
2021/09/22 00:56:16;;;;;;;3.50;2.35;;;;;;;;;;5063829;28;20036;-56
2021/09/22 00:58:41;;;;;;;3.40;1.85;;;;;;;;;;5061685;28;20036;-55
2021/09/22 01:01:06;;;;;;;2.67;1.95;;;;;;;;;;5066712;28;20028;-56
2021/09/22 01:03:32;;;;;;;3.47;2.10;;;;;;;;;;5067977;28;20119;-56
2021/09/22 01:06:00;;;;;;;2.85;1.80;;;;;;;;;;5064171;28;20481;-56
2021/09/22 01:08:27;;;;;;;2.55;2.05;;;;;;;;;;5064429;28;20048;-56
2021/09/22 01:10:53;;;;;;;2.45;1.90;;;;;;;;;;5065010;28;20094;-56
2021/09/22 01:13:18;;;;;;;2.53;1.77;;;;;;;;;;5066361;28;20024;-56
2021/09/22 01:15:44;;;;;;;3.22;2.10;;;;;;;;;;5065267;28;20119;-56
2021/09/22 01:18:15;;;;;;;3.63;1.73;;;;;;;;;;5062030;28;20032;-55
2021/09/22 01:20:41;;;;;;;2.97;1.98;;;;;;;;;;5065001;28;20025;-56
2021/09/22 01:23:08;;;;;;;2.55;1.85;;;;;;;;;;5065505;28;20622;-56
2021/09/22 01:25:38;;;;;;;2.63;1.88;;;;;;;;;;5064440;28;20048;-56
2021/09/22 01:28:04;;;;;;;2.92;2.15;;;;;;;;;;5065107;28;20056;-55
2021/09/22 01:30:30;;;;;;;2.35;1.75;;;;;;;;;;5064105;28;20024;-56
2021/09/22 01:32:59;;;;;;;3.45;2.30;;;;;;;;;;5065894;28;20078;-56
2021/09/22 01:35:25;;;;;;;2.20;1.70;;;;;;;;;;5065761;28;20029;-56
2021/09/22 01:37:51;;;;;;;2.42;1.85;;;;;;;;;;5062941;28;20058;-56
2021/09/22 01:40:17;;;;;;;4.97;2.38;;;;;;;;;;5066071;28;20128;-56
2021/09/22 01:42:43;;;;;;;2.70;2.10;;;;;;;;;;5066565;28;20033;-56
2021/09/22 01:45:11;;;;;;;2.30;1.70;;;;;;;;;;5064040;28;20064;-55
2021/09/22 01:47:37;;;;;;;3.50;2.60;;;;;;;;;;5064909;28;20051;-55
2021/09/22 01:50:13;;;;;;;2.78;1.88;;;;;;;;;;5065890;28;20028;-55
2021/09/22 01:52:39;;;;;;;3.00;2.30;;;;;;;;;;5067310;28;20066;-57
2021/09/22 01:55:06;;;;;;;2.95;2.15;;;;;;;;;;5068758;28;20043;-56
2021/09/22 01:57:31;;;;;;;3.25;2.38;;;;;;;;;;5067391;28;20032;-55
2021/09/22 01:59:57;;;;;;;2.45;1.90;;;;;;;;;;5068798;28;20063;-55
2021/09/22 02:02:22;;;;;;;3.20;1.77;;;;;;;;;;5068885;28;20113;-56
2021/09/22 02:04:48;;;;;;;3.13;2.05;;;;;;;;;;5061883;28;20055;-56
2021/09/22 02:07:13;;;;;;;3.75;2.75;;;;;;;;;;5064349;28;20439;-55
2021/09/22 02:09:39;;;;;;;3.05;2.20;;;;;;;;;;5066000;28;20029;-54
2021/09/22 02:12:05;;;;;;;3.20;2.53;;;;;;;;;;5064571;28;20127;-56
2021/09/22 02:14:30;;;;;;;3.25;2.08;;;;;;;;;;5068101;28;20077;-57
2021/09/22 02:16:56;;;;;;;3.05;2.20;;;;;;;;;;5065680;28;20024;-57
2021/09/22 02:19:22;;;;;;;2.53;1.88;;;;;;;;;;5069040;28;20499;-53
2021/09/22 02:21:48;;;;;;;2.20;1.60;;;;;;;;;;5068682;28;20032;-57
2021/09/22 02:24:13;;;;;;;2.72;1.83;;;;;;;;;;5069162;28;20051;-57
2021/09/22 02:26:39;;;;;;;3.55;2.00;;;;;;;;;;5070500;28;20087;-55
2021/09/22 02:29:04;;;;;;;3.13;2.10;;;;;;;;;;5071255;28;20055;-55
2021/09/22 02:31:30;;;;;;;4.35;1.73;;;;;;;;;;5066442;28;20370;-55
2021/09/22 02:33:55;;;;;;;2.58;2.08;;;;;;;;;;5067746;28;20041;-56
2021/09/22 02:36:21;;;;;;;2.38;1.83;;;;;;;;;;5070298;28;20048;-55
2021/09/22 02:38:47;;;;;;;2.55;2.03;;;;;;;;;;5069869;28;20076;-55
2021/09/22 02:41:13;;;;;;;2.75;1.73;;;;;;;;;;5069554;28;20055;-55
2021/09/22 02:43:38;;;;;;;3.03;2.42;;;;;;;;;;5070565;28;20369;-55
2021/09/22 02:46:04;;;;;;;3.38;2.22;;;;;;;;;;5065489;28;20615;-55
2021/09/22 02:48:29;;;;;;;3.95;2.05;;;;;;;;;;5067317;28;20507;-55
2021/09/22 02:50:55;;;;;;;2.75;2.15;;;;;;;;;;5068510;28;20033;-56
2021/09/22 02:53:20;;;;;;;2.47;1.95;;;;;;;;;;5069504;28;20028;-55
2021/09/22 02:55:46;;;;;;;2.38;1.75;;;;;;;;;;5070015;28;20044;-55
2021/09/22 02:58:12;;;;;;;4.43;2.47;;;;;;;;;;5070970;28;20089;-55
2021/09/22 03:00:38;;;;;;;3.58;1.70;;;;;;;;;;5069651;28;20028;-55
2021/09/22 03:03:03;;;;;;;3.90;2.42;;;;;;;;;;5068342;28;20029;-55
2021/09/22 03:05:29;;;;;;;3.53;2.22;;;;;;;;;;5068453;28;20033;-55
2021/09/22 03:07:55;;;;;;;2.67;1.60;;;;;;;;;;5065434;28;20024;-55
2021/09/22 03:10:20;;;;;;;3.33;2.33;;;;;;;;;;5061685;28;20043;-55
2021/09/22 03:12:46;;;;;;;2.38;1.77;;;;;;;;;;5066460;28;20035;-54
2021/09/22 03:15:12;;;;;;;2.78;2.08;;;;;;;;;;5069270;28;20091;-54
2021/09/22 03:17:37;;;;;;;3.13;2.00;;;;;;;;;;5069670;28;20029;-55
2021/09/22 03:20:04;;;;;;;3.67;2.50;;;;;;;;;;5066362;28;20033;-55
2021/09/22 03:22:29;;;;;;;2.22;1.60;;;;;;;;;;5069343;28;20102;-55
2021/09/22 03:24:55;;;;;;;2.40;1.70;;;;;;;;;;5069033;28;20036;-55
2021/09/22 03:27:20;;;;;;;2.70;1.75;;;;;;;;;;5069359;28;20166;-55
2021/09/22 03:29:46;;;;;;;2.53;1.83;;;;;;;;;;5066596;28;20059;-55
2021/09/22 03:32:12;;;;;;;2.50;1.92;;;;;;;;;;5068439;28;20444;-55
2021/09/22 03:34:37;;;;;;;3.67;2.78;;;;;;;;;;5068384;28;20121;-55
2021/09/22 03:37:03;;;;;;;2.97;2.17;;;;;;;;;;5069465;28;20041;-55
2021/09/22 03:39:28;;;;;;;4.07;2.33;;;;;;;;;;5067459;28;20107;-54
2021/09/22 03:41:54;;;;;;;4.05;2.88;;;;;;;;;;5067638;28;20041;-55
2021/09/22 03:44:19;;;;;;;3.28;2.42;;;;;;;;;;5067169;28;20120;-55
2021/09/22 03:46:45;;;;;;;2.22;1.60;;;;;;;;;;5069219;28;20123;-55
2021/09/22 03:49:10;;;;;;;3.25;2.42;;;;;;;;;;5068737;28;20455;-55
2021/09/22 03:51:36;;;;;;;3.13;2.15;;;;;;;;;;5070238;28;20445;-55
2021/09/22 03:54:01;;;;;;;3.63;1.98;;;;;;;;;;5067727;28;20036;-55
2021/09/22 03:56:27;;;;;;;2.72;1.65;;;;;;;;;;5069295;28;20084;-55
2021/09/22 03:58:52;;;;;;;3.63;2.00;;;;;;;;;;5068516;28;20119;-56
2021/09/22 04:01:18;;;;;;;2.40;1.67;;;;;;;;;;5069545;28;20033;-58
2021/09/22 04:03:44;;;;;;;2.42;1.65;;;;;;;;;;5066430;28;20462;-56
2021/09/22 04:06:09;;;;;;;2.42;1.70;;;;;;;;;;5067355;28;20037;-57
2021/09/22 04:08:34;;;;;;;3.45;2.53;;;;;;;;;;5066776;28;20513;-57
2021/09/22 04:11:00;;;;;;;2.60;1.73;;;;;;;;;;5066642;28;20374;-57
2021/09/22 04:13:25;;;;;;;2.67;1.77;;;;;;;;;;5066544;28;20040;-57
2021/09/22 04:15:51;;;;;;;2.70;1.85;;;;;;;;;;5066768;28;20132;-57
2021/09/22 04:18:16;;;;;;;2.63;1.80;;;;;;;;;;5069974;28;20069;-57
2021/09/22 04:20:42;;;;;;;4.40;2.42;;;;;;;;;;5068881;28;20039;-57
2021/09/22 04:23:07;;;;;;;3.47;1.85;;;;;;;;;;5070074;28;20037;-57
2021/09/22 04:25:33;;;;;;;2.72;1.80;;;;;;;;;;5067983;28;20054;-57
2021/09/22 04:27:58;;;;;;;5.88;2.40;;;;;;;;;;5069373;28;20515;-57
2021/09/22 04:30:24;;;;;;;2.20;1.50;;;;;;;;;;5068900;28;20060;-57
2021/09/22 04:32:50;;;;;;;3.08;2.17;;;;;;;;;;5068243;28;20028;-57
2021/09/22 04:35:15;;;;;;;3.75;2.22;;;;;;;;;;5069570;28;20090;-57
2021/09/22 04:37:41;;;;;;;2.20;1.65;;;;;;;;;;5069073;28;20033;-57
2021/09/22 04:40:09;;;;;;;2.72;2.10;;;;;;;;;;5068423;28;20420;-56
2021/09/22 04:42:35;;;;;;;2.25;1.48;;;;;;;;;;5068302;28;20064;-56
2021/09/22 04:45:01;;;;;;;3.47;2.28;;;;;;;;;;5068760;28;20124;-55
2021/09/22 04:47:27;;;;;;;2.13;1.60;;;;;;;;;;5069497;28;20068;-56
2021/09/22 04:49:55;;;;;;;4.10;2.53;;;;;;;;;;5068243;28;20454;-56
2021/09/22 04:52:20;;;;;;;2.78;2.17;;;;;;;;;;5069170;28;20519;-55
2021/09/22 04:54:46;;;;;;;2.75;1.95;;;;;;;;;;5068994;28;20029;-55
2021/09/22 04:57:11;;;;;;;2.38;1.70;;;;;;;;;;5069056;28;20044;-55
2021/09/22 04:59:37;;;;;;;2.50;2.03;;;;;;;;;;5068438;28;20045;-56
2021/09/22 05:02:02;;;;;;;2.08;1.58;;;;;;;;;;5066305;28;20039;-56
2021/09/22 05:04:28;;;;;;;2.65;1.95;;;;;;;;;;5068352;28;20047;-56
2021/09/22 05:06:53;;;;;;;2.38;1.83;;;;;;;;;;5067631;28;20056;-55
2021/09/22 05:09:19;;;;;;;3.10;2.03;;;;;;;;;;5067084;28;20040;-55
2021/09/22 05:11:44;;;;;;;2.28;1.65;;;;;;;;;;5068638;28;20099;-55
2021/09/22 05:14:10;;;;;;;3.25;1.88;;;;;;;;;;5061112;28;20020;-55
2021/09/22 05:16:35;;;;;;;5.13;2.55;;;;;;;;;;5065823;28;20052;-55
2021/09/22 05:19:01;;;;;;;4.35;1.98;;;;;;;;;;5067521;28;20829;-53
2021/09/22 05:21:26;;;;;;;3.72;2.53;;;;;;;;;;5068655;28;20046;-56
2021/09/22 05:23:52;;;;;;;4.03;2.83;;;;;;;;;;5068078;28;20044;-56
2021/09/22 05:26:18;;;;;;;6.68;2.30;;;;;;;;;;5068210;28;20063;-56
2021/09/22 05:28:44;;;;;;;3.05;2.30;;;;;;;;;;5068171;28;20029;-56
2021/09/22 05:31:09;;;;;;;2.47;1.80;;;;;;;;;;5065487;28;20537;-56
2021/09/22 05:33:35;;;;;;;2.95;2.05;;;;;;;;;;5066701;28;20044;-56
2021/09/22 05:36:00;;;;;;;2.95;1.95;;;;;;;;;;5067667;28;20032;-55
2021/09/22 05:38:25;;;;;;;9.02;2.47;;;;;;;;;;5067375;28;20060;-56
2021/09/22 05:40:51;;;;;;;2.90;2.03;;;;;;;;;;5066670;28;20036;-56
2021/09/22 05:43:16;;;;;;;4.68;2.05;;;;;;;;;;5068617;28;20241;-56
2021/09/22 05:45:42;;;;;;;2.70;1.88;;;;;;;;;;5068040;28;20072;-57
2021/09/22 05:48:07;;;;;;;2.22;1.63;;;;;;;;;;5068397;28;20029;-55
2021/09/22 05:50:33;;;;;;;3.20;2.38;;;;;;;;;;5063011;28;20074;-55
2021/09/22 05:52:58;;;;;;;2.40;1.80;;;;;;;;;;5068311;28;20044;-56
2021/09/22 05:55:23;;;;;;;3.47;2.28;;;;;;;;;;5070569;28;20099;-56
2021/09/22 05:57:49;;;;;;;2.88;2.15;;;;;;;;;;5070311;28;20473;-56
2021/09/22 06:00:15;;;;;;;3.08;2.38;;;;;;;;;;5071133;28;20116;-56
2021/09/22 06:02:40;;;;;;;3.90;2.65;;;;;;;;;;5067072;28;20077;-54
2021/09/22 06:05:06;;;;;;;2.95;2.17;;;;;;;;;;5069332;28;20033;-55
2021/09/22 06:07:32;;;;;;;3.83;2.40;;;;;;;;;;5069736;28;20640;-56
2021/09/22 06:09:58;;;;;;;4.82;2.70;;;;;;;;;;5061235;28;20180;-55
2021/09/22 06:12:23;;;;;;;9.00;6.07;;;;;;;;;;5062718;28;20036;-56
2021/09/22 06:14:49;;;;;;;7.40;5.38;;;;;;;;;;5068416;28;20548;-55
2021/09/22 06:17:14;;;;;;;5.53;2.53;;;;;;;;;;5064971;28;20048;-55
2021/09/22 06:19:40;;;;;;;4.72;2.75;;;;;;;;;;5071772;28;20395;-56
2021/09/22 06:22:05;;;;;;;4.95;2.97;;;;;;;;;;5070945;28;20036;-54
2021/09/22 06:24:32;;;;;;;4.03;2.70;;;;;;;;;;5071340;28;20042;-55
2021/09/22 06:26:57;;;;;;;4.00;2.60;;;;;;;;;;5071679;28;20429;-56
2021/09/22 06:29:23;;;;;;;3.40;2.33;;;;;;;;;;5071601;28;20115;-56
2021/09/22 06:31:48;;;;;;;2.50;2.00;;;;;;;;;;5069674;28;20036;-55
2021/09/22 06:34:14;;;;;;;5.32;2.10;;;;;;;;;;5070017;28;20029;-55
2021/09/22 06:36:39;;;;;;;7.57;3.83;;;;;;;;;;5071244;28;20473;-55
2021/09/22 06:39:06;;;;;;;3.70;2.55;;;;;;;;;;5069614;28;20041;-56
2021/09/22 06:41:33;;;;;;;3.67;2.70;;;;;;;;;;5069721;28;20067;-55
2021/09/22 06:43:59;;;;;;;3.72;2.55;;;;;;;;;;5070447;28;20044;-55
2021/09/22 06:46:25;;;;;;;3.78;2.75;;;;;;;;;;5069198;28;20111;-53
2021/09/22 06:48:50;;;;;;;3.22;2.70;;;;;;;;;;5068935;28;20122;-56
2021/09/22 06:51:18;;;;;;;3.70;1.90;;;;;;;;;;5069604;28;20091;-54
2021/09/22 06:53:44;;;;;;;3.08;2.47;;;;;;;;;;5071191;28;20044;-55
2021/09/22 06:56:10;;;;;;;3.38;2.38;;;;;;;;;;5071142;28;20020;-57
2021/09/22 06:58:35;;;;;;;7.35;3.53;;;;;;;;;;5070358;28;20158;-56
2021/09/22 07:01:01;;;;;;;3.60;2.10;;;;;;;;;;5069462;28;20646;-56
2021/09/22 07:03:26;;;;;;;3.30;2.00;;;;;;;;;;5071136;28;20109;-56
2021/09/22 07:05:52;;;;;;;5.13;3.05;;;;;;;;;;5070152;28;20161;-55
2021/09/22 07:08:19;;;;;;;3.47;2.60;;;;;;;;;;5070494;28;20028;-57
2021/09/22 07:10:44;;;;;;;3.33;2.55;;;;;;;;;;5064154;28;20041;-57
2021/09/22 07:13:10;;;;;;;3.22;2.50;;;;;;;;;;5064543;28;20102;-55
2021/09/22 07:15:36;;;;;;;3.55;2.58;;;;;;;;;;5066554;28;20441;-56
2021/09/22 07:18:01;;;;;;;4.32;3.30;;;;;;;;;;5068404;28;20531;-57
2021/09/22 07:20:27;;;;;;;4.72;2.70;;;;;;;;;;5069624;28;20039;-57
2021/09/22 07:22:52;;;;;;;2.60;1.90;;;;;;;;;;5071078;28;20041;-57
2021/09/22 07:25:18;;;;;;;3.20;2.50;;;;;;;;;;5071383;28;20025;-57
2021/09/22 07:27:44;;;;;;;6.65;2.83;;;;;;;;;;5071419;28;20032;-57
2021/09/22 07:30:13;;;;;;;3.58;2.45;;;;;;;;;;5070437;28;20484;-56
2021/09/22 07:32:40;;;;;;;4.55;2.47;;;;;;;;;;5071437;28;20496;-56
2021/09/22 07:35:06;;;;;;;2.97;2.33;;;;;;;;;;5067517;28;20343;-56
2021/09/22 07:37:31;;;;;;;5.43;2.45;;;;;;;;;;5066036;28;20094;-57
2021/09/22 07:39:57;;;;;;;4.28;2.63;;;;;;;;;;5068710;28;20032;-56
2021/09/22 07:42:22;;;;;;;2.78;2.35;;;;;;;;;;5070640;28;20052;-56
2021/09/22 07:44:53;;;;;;;2.65;2.05;;;;;;;;;;5067794;28;20032;-56
2021/09/22 07:47:19;;;;;;;2.95;2.22;;;;;;;;;;5070310;28;20060;-56
2021/09/22 07:49:44;;;;;;;3.05;2.35;;;;;;;;;;5071084;28;20063;-56
2021/09/22 07:52:10;;;;;;;2.63;1.90;;;;;;;;;;5063268;28;20032;-56
2021/09/22 07:54:37;;;;;;;3.38;2.35;;;;;;;;;;5064003;28;20115;-56
2021/09/22 07:57:03;;;;;;;3.80;2.72;;;;;;;;;;5068289;28;20613;-56
2021/09/22 07:59:29;;;;;;;2.97;2.03;;;;;;;;;;5070713;28;20078;-56
2021/09/22 08:01:56;;;;;;;5.88;4.72;;;;;;;;;;5069936;28;20036;-56
2021/09/22 08:04:21;;;;;;;3.42;2.60;;;;;;;;;;5067275;28;20111;-56
2021/09/22 08:06:46;;;;;;;3.65;2.83;;;;;;;;;;5062487;28;20119;-56
2021/09/22 08:09:12;;;;;;;5.60;3.05;;;;;;;;;;5068105;28;20071;-56
2021/09/22 08:11:38;;;;;;;3.08;2.20;;;;;;;;;;5069700;28;20059;-56
2021/09/22 08:14:03;;;;;;;3.63;2.58;;;;;;;;;;5064841;28;20110;-56
2021/09/22 08:16:28;;;;;;;3.55;2.67;;;;;;;;;;5067264;28;20398;-56
2021/09/22 08:18:54;;;;;;;4.00;2.97;;;;;;;;;;5069143;28;20042;-56
2021/09/22 08:21:19;;;;;;;3.08;2.33;;;;;;;;;;5069659;28;20021;-56
2021/09/22 08:23:45;;;;;;;3.38;2.67;;;;;;;;;;5068808;28;20465;-56
2021/09/22 08:26:10;;;;;;;3.20;2.42;;;;;;;;;;5068310;28;20036;-56
2021/09/22 08:28:36;;;;;;;3.13;2.35;;;;;;;;;;5066904;28;20075;-56
2021/09/22 08:31:02;;;;;;;3.25;2.05;;;;;;;;;;5067244;28;20089;-57
2021/09/22 08:33:28;;;;;;;10.70;2.80;;;;;;;;;;5067737;28;20054;-57
2021/09/22 08:35:53;;;;;;;2.75;2.10;;;;;;;;;;5069230;28;20114;-56
2021/09/22 08:38:19;;;;;;;2.63;1.95;;;;;;;;;;5064283;28;20032;-54
2021/09/22 08:40:44;;;;;;;3.78;2.95;;;;;;;;;;5068585;28;20112;-57
2021/09/22 08:43:11;;;;;;;4.57;3.33;;;;;;;;;;5068905;28;20024;-57
2021/09/22 08:45:37;;;;;;;9.45;3.67;;;;;;;;;;5068994;28;20064;-56
2021/09/22 08:48:04;;;;;;;3.17;2.28;;;;;;;;;;5069376;28;20097;-57
2021/09/22 08:50:30;;;;;;;2.00;1.40;;;;;;;;;;5069464;28;20409;-56
2021/09/22 08:52:55;;;;;;;2.70;2.13;;;;;;;;;;5069546;28;20127;-57
2021/09/22 08:55:20;;;;;;;6.40;3.08;;;;;;;;;;5069643;28;20033;-57
2021/09/22 08:57:46;;;;;;;2.55;2.08;;;;;;;;;;5069008;28;20032;-57
2021/09/22 09:00:14;;;;;;;4.07;2.95;;;;;;;;;;5069443;28;20519;-57
2021/09/22 09:02:45;;;;;;;4.60;2.58;;;;;;;;;;5068067;28;20064;-56
2021/09/22 09:05:16;;;;;;;4.00;3.05;;;;;;;;;;5068888;28;20040;-56
2021/09/22 09:07:47;;;;;;;3.25;2.45;;;;;;;;;;5068690;28;20055;-57
2021/09/22 09:10:13;;;;;;;3.13;2.15;;;;;;;;;;5067476;28;20339;-57
2021/09/22 09:12:39;;;;;;;3.72;2.83;;;;;;;;;;5069258;28;20337;-57
2021/09/22 09:15:11;;;;;;;3.95;2.90;;;;;;;;;;5069611;28;20207;-57
2021/09/22 09:17:41;;;;;;;3.10;2.47;;;;;;;;;;5068993;28;20035;-57
2021/09/22 09:20:20;;;;;;;4.30;2.97;;;;;;;;;;5066620;28;20028;-57
2021/09/22 09:22:55;;;;;;;7.80;2.90;;;;;;;;;;5068456;28;20043;-57
2021/09/22 09:25:25;;;;;;;3.00;2.38;;;;;;;;;;5085271;28;20465;-57
2021/09/22 09:27:50;;;;;;;2.75;2.10;;;;;;;;;;5071317;28;20416;-57
2021/09/22 09:30:19;;;;;;;3.17;2.47;;;;;;;;;;5072573;28;20449;-57
2021/09/22 09:32:44;;;;;;;3.80;2.35;;;;;;;;;;5072525;28;20404;-57
2021/09/22 09:35:16;;;;;;;3.05;2.28;;;;;;;;;;5073338;28;20090;-57
2021/09/22 09:37:43;;;;;;;3.42;2.85;;;;;;;;;;5072271;28;20041;-57
2021/09/22 09:40:24;;;;;;;4.20;3.03;;;;;;;;;;5070019;28;20041;-57
2021/09/22 09:42:52;;;;;;;5.22;3.05;;;;;;;;;;5071378;28;20055;-57
2021/09/22 09:45:20;;;;;;;4.13;2.67;;;;;;;;;;5066210;28;20033;-56
2021/09/22 09:48:12;;;;;;;3.10;2.20;;;;;;;;;;5071704;28;20032;-57
2021/09/22 09:50:39;;;;;;;4.25;2.72;;;;;;;;;;5070366;28;20021;-57
2021/09/22 09:53:05;;;;;;;4.88;3.53;;;;;;;;;;5071508;28;20036;-56
2021/09/22 09:55:33;;;;;;;4.60;3.40;;;;;;;;;;5072154;28;20024;-57
2021/09/22 09:57:59;;;;;;;3.03;2.17;;;;;;;;;;5071451;28;20016;-56
2021/09/22 10:00:39;;;;;;;3.30;2.55;;;;;;;;;;5070419;28;20186;-57
2021/09/22 10:03:09;;;;;;;3.00;2.38;;;;;;;;;;5069519;28;20065;-56
2021/09/22 10:05:35;;;;;;;4.03;2.83;;;;;;;;;;5071424;28;20178;-57
2021/09/22 10:08:00;;;;;;;3.83;2.92;;;;;;;;;;5068157;28;20029;-56
2021/09/22 10:10:27;;;;;;;3.65;2.58;;;;;;;;;;5071365;28;20044;-56
2021/09/22 10:12:54;;;;;;;3.63;2.60;;;;;;;;;;5072454;28;20086;-57
2021/09/22 10:15:19;;;;;;;2.95;2.35;;;;;;;;;;5071655;28;20028;-55
2021/09/22 10:17:46;;;;;;;4.47;3.10;;;;;;;;;;5071671;28;20043;-57
2021/09/22 10:20:12;;;;;;;3.47;2.85;;;;;;;;;;5069883;28;20448;-57
2021/09/22 10:22:37;;;;;;;3.58;2.75;;;;;;;;;;5071043;28;20660;-57
2021/09/22 10:25:05;;;;;;;3.90;3.15;;;;;;;;;;5071359;28;20036;-56
2021/09/22 10:27:31;;;;;;;4.45;2.78;;;;;;;;;;5071393;28;20510;-56
2021/09/22 10:30:03;;;;;;;3.67;2.53;;;;;;;;;;5068956;28;20033;-57
2021/09/22 10:32:43;;;;;;;3.85;3.08;;;;;;;;;;5070935;28;20029;-57
2021/09/22 10:35:21;;;;;;;4.40;2.90;;;;;;;;;;5070759;28;20032;-57
2021/09/22 10:37:47;;;;;;;3.20;2.58;;;;;;;;;;5070383;28;20515;-57
2021/09/22 10:40:16;;;;;;;4.00;2.75;;;;;;;;;;5070826;28;20036;-57
2021/09/22 10:42:43;;;;;;;4.35;2.47;;;;;;;;;;5071115;28;20056;-57
2021/09/22 10:45:21;;;;;;;3.80;2.88;;;;;;;;;;5070151;28;20486;-57
2021/09/22 10:47:50;;;;;;;3.63;2.72;;;;;;;;;;5069804;28;20047;-57
2021/09/22 10:50:39;;;;;;;2.95;2.30;;;;;;;;;;5071428;28;20032;-57
2021/09/22 10:53:35;;;;;;;3.58;2.80;;;;;;;;;;5070869;28;20020;-57
2021/09/22 10:56:08;;;;;;;2.90;2.20;;;;;;;;;;5066094;28;20041;-58
2021/09/22 10:58:38;;;;;;;4.10;3.35;;;;;;;;;;5070587;28;20434;-59
2021/09/22 11:01:03;;;;;;;3.90;3.05;;;;;;;;;;5069721;28;20028;-59
2021/09/22 11:03:47;;;;;;;3.35;2.40;;;;;;;;;;5069846;28;20045;-59
2021/09/22 11:06:47;;;;;;;3.70;2.83;;;;;;;;;;5071479;28;20489;-59
2021/09/22 11:09:21;;;;;;;4.15;2.95;;;;;;;;;;5070645;28;20102;-59
2021/09/22 11:11:53;;;;;;;4.38;3.35;;;;;;;;;;5071762;28;20097;-59
2021/09/22 11:14:33;;;;;;;6.03;3.65;;;;;;;;;;5069274;28;20269;-59
2021/09/22 11:17:08;;;;;;;2.72;2.20;;;;;;;;;;5070199;28;20055;-58
2021/09/22 11:19:35;;;;;;;3.28;2.53;;;;;;;;;;5070804;28;20032;-60
2021/09/22 11:22:01;;;;;;;3.72;2.95;;;;;;;;;;5053602;28;20025;-58
2021/09/22 11:24:30;;;;;;;3.38;2.95;;;;;;;;;;5064571;28;20029;-59
2021/09/22 11:27:02;;;;;;;7.65;3.53;;;;;;;;;;5069516;28;20032;-59
2021/09/22 11:29:28;;;;;;;3.45;2.55;;;;;;;;;;5067944;28;20039;-58
2021/09/22 11:31:53;;;;;;;3.15;2.67;;;;;;;;;;5071027;28;20036;-59
2021/09/22 11:34:30;;;;;;;2.83;2.17;;;;;;;;;;5070470;28;20028;-58
2021/09/22 11:37:07;;;;;;;4.15;2.90;;;;;;;;;;5068830;28;20150;-59
2021/09/22 11:39:33;;;;;;;3.92;2.78;;;;;;;;;;5069076;28;20768;-58
2021/09/22 11:41:59;;;;;;;3.35;2.50;;;;;;;;;;5071221;28;20050;-59
2021/09/22 11:44:29;;;;;;;3.55;2.35;;;;;;;;;;5068434;28;20021;-58
2021/09/22 11:46:59;;;;;;;3.10;2.60;;;;;;;;;;5070773;28;20062;-59
2021/09/22 11:49:36;;;;;;;3.10;2.42;;;;;;;;;;5070038;28;20087;-59
2021/09/22 11:52:04;;;;;;;4.18;3.03;;;;;;;;;;5069309;28;20036;-57
2021/09/22 11:54:30;;;;;;;5.95;2.83;;;;;;;;;;5066859;28;20038;-59
2021/09/22 11:57:10;;;;;;;4.28;3.00;;;;;;;;;;5070149;28;20033;-59
2021/09/22 11:59:36;;;;;;;3.47;2.78;;;;;;;;;;5070173;28;20047;-59
2021/09/22 12:02:02;;;;;;;3.85;3.13;;;;;;;;;;5067851;28;20033;-59
2021/09/22 12:04:46;;;;;;;3.22;2.40;;;;;;;;;;5069089;28;20029;-57
2021/09/22 12:07:14;;;;;;;11.25;3.47;;;;;;;;;;5068288;28;21667;-57
2021/09/22 12:09:47;;;;;;;3.40;2.60;;;;;;;;;;5070284;28;20071;-57
2021/09/22 12:12:18;;;;;;;3.20;2.50;;;;;;;;;;5070465;28;20036;-57
2021/09/22 12:14:53;;;;;;;2.83;2.50;;;;;;;;;;5067931;28;20525;-57
2021/09/22 12:17:22;;;;;;;3.47;3.03;;;;;;;;;;5063713;28;20507;-57
2021/09/22 12:19:48;;;;;;;3.00;2.47;;;;;;;;;;5070445;28;20025;-57
2021/09/22 12:22:21;;;;;;;3.38;3.03;;;;;;;;;;5066913;28;22492;-57
2021/09/22 12:24:46;;;;;;;2.75;2.03;;;;;;;;;;5066733;28;20032;-57
2021/09/22 12:27:15;;;;;;;4.47;2.70;;;;;;;;;;5066251;28;20370;-57
2021/09/22 12:29:56;;;;;;;3.13;2.50;;;;;;;;;;5065966;28;20575;-57
2021/09/22 12:32:24;;;;;;;2.75;2.35;;;;;;;;;;5068115;28;20040;-58
2021/09/22 12:34:50;;;;;;;3.33;2.40;;;;;;;;;;5067192;28;20032;-58
2021/09/22 12:37:18;;;;;;;3.45;2.75;;;;;;;;;;5066528;28;20127;-58
2021/09/22 12:40:11;;;;;;;2.83;2.42;;;;;;;;;;5066116;28;20035;-59
2021/09/22 12:42:44;;;;;;;3.22;2.60;;;;;;;;;;5069079;28;20036;-57
2021/09/22 12:45:15;;;;;;;3.03;2.60;;;;;;;;;;5069082;28;20123;-57
2021/09/22 12:48:09;;;;;;;3.90;3.00;;;;;;;;;;5068043;28;20089;-58
2021/09/22 12:50:42;;;;;;;4.22;3.05;;;;;;;;;;5050178;28;20036;-57
2021/09/22 12:53:16;;;;;;;3.97;2.88;;;;;;;;;;5067225;28;20157;-57
2021/09/22 12:55:43;;;;;;;3.40;2.78;;;;;;;;;;5067521;28;20085;-57
2021/09/22 12:58:11;;;;;;;3.78;2.78;;;;;;;;;;5066616;28;20024;-57
2021/09/22 13:00:51;;;;;;;3.33;2.88;;;;;;;;;;5067825;28;20532;-57
2021/09/22 13:03:35;;;;;;;3.40;2.97;;;;;;;;;;5068631;28;20486;-58
2021/09/22 13:06:07;;;;;;;3.22;2.75;;;;;;;;;;5068575;28;20668;-57
2021/09/22 13:08:52;;;;;;;3.10;2.75;;;;;;;;;;5068339;28;20034;-57
2021/09/22 13:11:21;;;;;;;5.85;2.90;;;;;;;;;;5068896;28;20032;-57
2021/09/22 13:13:51;;;;;;;6.65;3.08;;;;;;;;;;5068534;28;20024;-58
2021/09/22 13:16:20;;;;;;;3.75;2.60;;;;;;;;;;5069531;28;20028;-57
2021/09/22 13:18:47;;;;;;;3.03;2.72;;;;;;;;;;5068010;28;20038;-58
2021/09/22 13:21:13;;;;;;;3.13;2.70;;;;;;;;;;5064933;28;20044;-57
2021/09/22 13:23:47;;;;;;;4.03;3.15;;;;;;;;;;5066656;28;20028;-57
2021/09/22 13:26:14;;;;;;;4.03;3.33;;;;;;;;;;5067567;28;20047;-57
2021/09/22 13:28:40;;;;;;;3.20;2.78;;;;;;;;;;5066967;28;20036;-57
2021/09/22 13:31:07;;;;;;;3.42;2.50;;;;;;;;;;5067678;28;20062;-57
2021/09/22 13:33:33;;;;;;;2.88;2.40;;;;;;;;;;5067396;28;20104;-57
2021/09/22 13:35:59;;;;;;;3.45;2.83;;;;;;;;;;5064600;28;20532;-58
2021/09/22 13:38:24;;;;;;;3.67;3.25;;;;;;;;;;5066103;28;20040;-59
2021/09/22 13:40:50;;;;;;;3.28;2.70;;;;;;;;;;5067511;28;20124;-58
2021/09/22 13:43:17;;;;;;;3.15;2.45;;;;;;;;;;5065947;28;20628;-59
2021/09/22 13:45:44;;;;;;;2.50;1.80;;;;;;;;;;5066731;28;20029;-58
2021/09/22 13:48:09;;;;;;;3.25;2.38;;;;;;;;;;5068315;28;20041;-59
2021/09/22 13:50:35;;;;;;;3.58;2.83;;;;;;;;;;5066682;28;20035;-58
2021/09/22 13:53:00;;;;;;;4.88;3.03;;;;;;;;;;5061493;28;20031;-58
2021/09/22 13:55:26;;;;;;;4.28;2.83;;;;;;;;;;5068195;28;20433;-58
2021/09/22 13:57:51;;;;;;;4.47;3.50;;;;;;;;;;5068421;28;20063;-58
2021/09/22 14:00:17;;;;;;;2.92;2.20;;;;;;;;;;5069017;28;20330;-58
2021/09/22 14:02:42;;;;;;;3.97;2.78;;;;;;;;;;5068726;28;20044;-59
2021/09/22 14:05:08;;;;;;;3.17;2.47;;;;;;;;;;5067503;28;20044;-58
2021/09/22 14:07:34;;;;;;;3.25;2.58;;;;;;;;;;5067918;28;20488;-58
2021/09/22 14:09:59;;;;;;;3.08;2.47;;;;;;;;;;5067666;28;20162;-57
2021/09/22 14:12:24;;;;;;;2.70;2.03;;;;;;;;;;5068948;28;20512;-58
2021/09/22 14:14:50;;;;;;;3.40;2.72;;;;;;;;;;5071393;28;20100;-58
2021/09/22 14:17:15;;;;;;;2.90;2.53;;;;;;;;;;5069953;28;20129;-58
2021/09/22 14:19:41;;;;;;;3.30;2.03;;;;;;;;;;5064099;28;20105;-58
2021/09/22 14:22:06;;;;;;;4.38;2.92;;;;;;;;;;5071205;28;20040;-58
2021/09/22 14:24:32;;;;;;;4.28;3.47;;;;;;;;;;5070305;28;20047;-58
2021/09/22 14:26:57;;;;;;;3.33;2.33;;;;;;;;;;5072103;28;20024;-58
2021/09/22 14:29:23;;;;;;;2.92;2.53;;;;;;;;;;5072438;28;20032;-57
2021/09/22 14:31:48;;;;;;;4.03;3.30;;;;;;;;;;5071732;28;20036;-58
2021/09/22 14:34:13;;;;;;;3.47;2.58;;;;;;;;;;5071575;28;20016;-58
2021/09/22 14:36:39;;;;;;;2.50;1.83;;;;;;;;;;5072429;28;20135;-57
2021/09/22 14:39:05;;;;;;;2.72;2.13;;;;;;;;;;5069769;28;20028;-58
2021/09/22 14:41:31;;;;;;;3.25;2.38;;;;;;;;;;5071889;28;20449;-58
2021/09/22 14:43:56;;;;;;;3.20;2.55;;;;;;;;;;5070182;28;20450;-58